Time;durP1;ratioP1;P1;durP2;ratioP2;P2;SDS_P1;SDS_P2;PMS_P1;PMS_P2;Temp;Humidity;BMP_temperature;BMP_pressure;BME280_temperature;BME280_humidity;BME280_pressure;Samples;Min_cycle;Max_cycle;Signal;HPM_P1;HPM_P2
2022/04/03 00:02:12;;;;;;;0.40;0.40;;;;;;;23.28;7.77;99724.47;4994942;28;20046;-75
2022/04/03 00:04:38;;;;;;;0.40;0.40;;;;;;;23.29;7.84;99717.13;4994465;28;20038;-76
2022/04/03 00:07:03;;;;;;;0.28;0.28;;;;;;;23.26;7.79;99713.03;4995068;28;20041;-76
2022/04/03 00:09:29;;;;;;;0.40;0.40;;;;;;;23.28;7.71;99713.56;4994676;28;20536;-76
2022/04/03 00:11:55;;;;;;;0.43;0.40;;;;;;;23.26;7.81;99699.41;4993664;28;20018;-76
2022/04/03 00:14:20;;;;;;;0.40;0.40;;;;;;;23.27;7.70;99700.22;4995510;28;20038;-76
2022/04/03 00:16:46;;;;;;;0.40;0.40;;;;;;;23.28;7.64;99704.56;4996243;28;20050;-75
2022/04/03 00:19:11;;;;;;;0.30;0.30;;;;;;;23.29;7.70;99704.28;4995114;28;20089;-75
2022/04/03 00:21:37;;;;;;;0.40;0.40;;;;;;;23.23;7.67;99683.63;4994564;28;20030;-76
2022/04/03 00:24:03;;;;;;;0.32;0.32;;;;;;;23.27;7.78;99692.88;4995426;28;20030;-75
2022/04/03 00:26:29;;;;;;;0.47;0.40;;;;;;;23.26;7.93;99685.78;4997209;28;20031;-75
2022/04/03 00:28:54;;;;;;;0.30;0.30;;;;;;;23.27;7.91;99689.31;4998256;28;20033;-75
2022/04/03 00:31:20;;;;;;;0.30;0.30;;;;;;;23.28;8.00;99682.75;4997544;28;20478;-75
2022/04/03 00:33:45;;;;;;;0.22;0.22;;;;;;;23.27;7.78;99673.78;4998370;28;20034;-75
2022/04/03 00:36:11;;;;;;;0.30;0.30;;;;;;;23.26;7.80;99677.59;5000276;28;20041;-75
2022/04/03 00:38:36;;;;;;;0.30;0.30;;;;;;;23.25;7.87;99674.06;5000043;28;20382;-75
2022/04/03 00:41:02;;;;;;;0.35;0.35;;;;;;;23.25;7.91;99676.00;4997996;28;20086;-76
2022/04/03 00:43:27;;;;;;;0.20;0.20;;;;;;;23.26;7.90;99669.41;4998055;28;20031;-75
2022/04/03 00:45:53;;;;;;;0.38;0.38;;;;;;;23.25;7.98;99668.63;4997346;28;20033;-76
2022/04/03 00:48:18;;;;;;;0.40;0.32;;;;;;;23.27;7.88;99664.78;4998745;28;20029;-76
2022/04/03 00:50:44;;;;;;;0.30;0.30;;;;;;;23.25;7.74;99657.72;5000788;28;20030;-75
2022/04/03 00:53:09;;;;;;;0.30;0.30;;;;;;;23.26;8.01;99661.25;5002529;28;20061;-76
2022/04/03 00:55:35;;;;;;;0.20;0.20;;;;;;;23.25;8.01;99654.19;5002239;28;20362;-74
2022/04/03 00:58:01;;;;;;;0.30;0.30;;;;;;;23.24;7.94;99653.34;5014840;28;20468;-75
2022/04/03 01:00:27;;;;;;;0.30;0.30;;;;;;;23.25;7.90;99654.19;5021499;28;20034;-75
2022/04/03 01:02:52;;;;;;;0.73;0.30;;;;;;;23.19;7.78;99642.50;5021713;28;20056;-75
2022/04/03 01:05:18;;;;;;;0.50;0.30;;;;;;;23.25;7.99;99651.47;5017981;28;20366;-76
2022/04/03 01:07:43;;;;;;;0.22;0.22;;;;;;;23.24;7.85;99641.66;5019983;28;20025;-76
2022/04/03 01:10:09;;;;;;;0.30;0.30;;;;;;;23.24;7.84;99641.66;5016852;28;20026;-75
2022/04/03 01:12:46;;;;;;;0.25;0.25;;;;;;;23.25;7.86;99638.63;5017594;28;20382;-75
2022/04/03 01:15:15;;;;;;;0.20;0.20;;;;;;;23.23;7.93;99635.38;5015763;28;20084;-76
2022/04/03 01:17:41;;;;;;;0.22;0.22;;;;;;;23.23;7.84;99631.84;5021163;28;20030;-76
2022/04/03 01:20:08;;;;;;;0.20;0.20;;;;;;;23.19;7.82;99628.06;5021267;28;20053;-76
2022/04/03 01:22:33;;;;;;;0.30;0.30;;;;;;;23.23;7.87;99631.84;5036898;28;20033;-75
2022/04/03 01:24:59;;;;;;;0.20;0.20;;;;;;;23.22;7.95;99624.78;5023524;28;20026;-75
2022/04/03 01:27:24;;;;;;;0.30;0.30;;;;;;;23.22;7.91;99628.31;5023131;28;20423;-76
2022/04/03 01:29:52;;;;;;;0.20;0.20;;;;;;;23.23;7.81;99629.09;5021440;28;20492;-75
2022/04/03 01:32:18;;;;;;;0.28;0.28;;;;;;;23.22;7.92;99628.31;5019965;28;20026;-76
2022/04/03 01:34:43;;;;;;;0.35;0.35;;;;;;;23.23;7.73;99631.84;5022358;28;20025;-76
2022/04/03 01:37:08;;;;;;;0.20;0.20;;;;;;;23.22;7.76;99614.69;5019723;28;20120;-75
2022/04/03 01:39:34;;;;;;;0.28;0.28;;;;;;;23.23;7.64;99618.19;5018448;28;20018;-76
2022/04/03 01:42:01;;;;;;;0.30;0.30;;;;;;;23.21;7.74;99609.50;5018839;28;20131;-76
2022/04/03 01:44:26;;;;;;;0.20;0.20;;;;;;;23.21;7.72;99606.78;5019311;28;20049;-75
2022/04/03 01:46:52;;;;;;;0.30;0.30;;;;;;;23.20;7.76;99607.91;5018468;28;20469;-76
2022/04/03 01:49:17;;;;;;;0.38;0.30;;;;;;;23.21;7.74;99612.22;5017373;28;20026;-76
2022/04/03 01:51:43;;;;;;;0.32;0.30;;;;;;;23.21;7.63;99604.88;5017274;28;20030;-76
2022/04/03 01:54:08;;;;;;;0.40;0.30;;;;;;;23.22;7.71;99611.16;5017411;28;20030;-75
2022/04/03 01:56:34;;;;;;;0.30;0.30;;;;;;;23.17;7.63;99603.03;5015789;28;20033;-75
2022/04/03 01:59:03;;;;;;;0.38;0.30;;;;;;;23.22;7.74;99616.59;4997991;28;20466;-76
2022/04/03 02:01:30;;;;;;;0.30;0.30;;;;;;;23.21;7.74;99614.97;4996007;28;20105;-76
2022/04/03 02:03:55;;;;;;;0.30;0.30;;;;;;;23.21;7.60;99606.78;4997050;28;20109;-76
2022/04/03 02:06:20;;;;;;;0.30;0.30;;;;;;;23.22;7.58;99617.41;4997344;28;20069;-76
2022/04/03 02:08:46;;;;;;;0.30;0.30;;;;;;;23.22;7.55;99611.16;4997833;28;20470;-76
2022/04/03 02:11:12;;;;;;;0.38;0.38;;;;;;;23.21;7.53;99609.50;4996944;28;20026;-75
2022/04/03 02:13:37;;;;;;;0.30;0.30;;;;;;;23.17;7.45;99603.03;4996749;28;20057;-76
2022/04/03 02:16:03;;;;;;;0.38;0.30;;;;;;;23.20;7.49;99613.34;4996712;28;20033;-76
2022/04/03 02:18:28;;;;;;;0.20;0.20;;;;;;;23.19;7.53;99603.53;4996924;28;20118;-75
2022/04/03 02:20:54;;;;;;;0.30;0.30;;;;;;;23.20;7.56;99603.25;4996493;28;20045;-76
2022/04/03 02:23:19;;;;;;;0.20;0.20;;;;;;;23.19;7.62;99606.28;4996891;28;20045;-74
2022/04/03 02:25:45;;;;;;;0.38;0.35;;;;;;;23.19;7.67;99606.28;4997283;28;20026;-75
2022/04/03 02:28:12;;;;;;;0.20;0.20;;;;;;;23.19;7.59;99600.81;4996445;28;20030;-75
2022/04/03 02:30:37;;;;;;;0.30;0.30;;;;;;;23.17;7.66;99598.38;4996787;28;20105;-76
2022/04/03 02:33:03;;;;;;;0.30;0.30;;;;;;;23.18;7.53;99589.13;4996760;28;20046;-76
2022/04/03 02:35:28;;;;;;;0.30;0.30;;;;;;;23.18;7.75;99591.00;4996426;28;20450;-76
2022/04/03 02:37:53;;;;;;;0.35;0.30;;;;;;;23.15;7.63;99589.69;4995555;28;20038;-76
2022/04/03 02:40:19;;;;;;;0.30;0.30;;;;;;;23.17;7.50;99587.47;4996670;28;20026;-75
2022/04/03 02:42:45;;;;;;;0.32;0.32;;;;;;;23.18;7.67;99589.13;4996223;28;20038;-76
2022/04/03 02:45:10;;;;;;;0.30;0.30;;;;;;;23.18;7.58;99588.28;4995259;28;20033;-76
2022/04/03 02:47:36;;;;;;;0.30;0.30;;;;;;;23.12;7.76;99573.09;4996630;28;20454;-76
2022/04/03 02:50:02;;;;;;;0.30;0.30;;;;;;;23.16;7.48;99577.69;4996351;28;20409;-75
2022/04/03 02:52:28;;;;;;;0.32;0.32;;;;;;;23.17;7.50;99582.03;4996475;28;20057;-76
2022/04/03 02:54:54;;;;;;;0.20;0.20;;;;;;;23.11;7.62;99572.31;4996361;28;20026;-76
2022/04/03 02:57:19;;;;;;;0.30;0.30;;;;;;;23.13;7.76;99564.66;5002938;28;20108;-76
2022/04/03 02:59:45;;;;;;;0.20;0.20;;;;;;;23.15;7.69;99573.34;5015866;28;20049;-75
2022/04/03 03:02:11;;;;;;;0.30;0.30;;;;;;;23.14;7.86;99566.25;5015457;28;20036;-75
2022/04/03 03:04:37;;;;;;;0.45;0.45;;;;;;;23.15;7.65;99567.88;5015736;28;20065;-75
2022/04/03 03:07:03;;;;;;;0.30;0.30;;;;;;;23.14;7.55;99565.44;5015659;28;20037;-76
2022/04/03 03:09:28;;;;;;;0.68;0.40;;;;;;;23.14;7.65;99558.06;5016038;28;20026;-76
2022/04/03 03:11:54;;;;;;;0.30;0.30;;;;;;;23.15;7.65;99556.19;5015284;28;20469;-75
2022/04/03 03:14:19;;;;;;;0.43;0.40;;;;;;;23.15;7.75;99556.19;5015471;28;20025;-76
2022/04/03 03:16:45;;;;;;;0.50;0.40;;;;;;;23.16;7.88;99557.78;5015256;28;20030;-76
2022/04/03 03:19:10;;;;;;;0.30;0.30;;;;;;;23.16;7.76;99550.44;5014886;28;20053;-76
2022/04/03 03:21:36;;;;;;;0.30;0.30;;;;;;;23.16;7.80;99552.34;5014988;28;20037;-76
2022/04/03 03:24:02;;;;;;;0.30;0.30;;;;;;;23.11;7.85;99550.50;5015398;28;20076;-76
2022/04/03 03:26:27;;;;;;;0.40;0.40;;;;;;;23.13;7.82;99552.91;5015291;28;20132;-76
2022/04/03 03:28:53;;;;;;;0.40;0.40;;;;;;;23.13;7.91;99548.28;5014836;28;20453;-76
2022/04/03 03:31:19;;;;;;;0.40;0.40;;;;;;;23.13;7.79;99547.47;5015182;28;20026;-75
2022/04/03 03:33:45;;;;;;;0.38;0.38;;;;;;;23.13;7.58;99547.47;5015141;28;20049;-76
2022/04/03 03:36:11;;;;;;;0.40;0.40;;;;;;;23.13;7.80;99542.00;5015063;28;20041;-75
2022/04/03 03:38:36;;;;;;;0.50;0.47;;;;;;;23.05;7.64;99533.38;5014619;28;20034;-76
2022/04/03 03:41:02;;;;;;;0.30;0.30;;;;;;;23.13;7.79;99544.72;5013969;28;20333;-75
2022/04/03 03:43:27;;;;;;;0.40;0.40;;;;;;;23.13;7.83;99544.72;5015030;28;20041;-75
2022/04/03 03:45:53;;;;;;;0.47;0.40;;;;;;;23.15;7.80;99548.00;5030194;28;20030;-75
2022/04/03 03:48:18;;;;;;;0.40;0.40;;;;;;;23.13;7.82;99542.00;5014811;28;20325;-76
2022/04/03 03:50:44;;;;;;;0.43;0.40;;;;;;;23.13;7.70;99545.56;5014823;28;20041;-77
2022/04/03 03:53:09;;;;;;;0.30;0.30;;;;;;;23.13;7.66;99542.00;5015246;28;20164;-75
2022/04/03 03:55:35;;;;;;;0.30;0.30;;;;;;;23.11;7.74;99536.03;5014671;28;20512;-76
2022/04/03 03:58:00;;;;;;;0.30;0.30;;;;;;;23.11;7.57;99538.78;5002680;28;20476;-76
2022/04/03 04:00:26;;;;;;;0.30;0.30;;;;;;;23.13;7.66;99528.38;4995005;28;20038;-76
2022/04/03 04:02:51;;;;;;;0.47;0.47;;;;;;;23.05;7.67;99525.22;4995038;28;20023;-75
2022/04/03 04:05:17;;;;;;;0.40;0.40;;;;;;;23.13;7.61;99531.09;4994939;28;20054;-75
2022/04/03 04:07:44;;;;;;;0.32;0.32;;;;;;;23.10;7.73;99529.00;4994924;28;20369;-75
2022/04/03 04:10:13;;;;;;;0.30;0.30;;;;;;;23.08;7.69;99529.28;4994881;28;20025;-75
2022/04/03 04:12:39;;;;;;;0.30;0.30;;;;;;;23.09;7.69;99521.91;4994629;28;20524;-76
2022/04/03 04:15:05;;;;;;;0.30;0.30;;;;;;;23.09;7.66;99519.19;4994755;28;20027;-76
2022/04/03 04:17:38;;;;;;;0.35;0.35;;;;;;;23.09;7.80;99513.72;4994686;28;20390;-75
2022/04/03 04:20:09;;;;;;;0.30;0.30;;;;;;;23.10;7.60;99515.38;4994297;28;20054;-75
2022/04/03 04:22:35;;;;;;;0.40;0.40;;;;;;;23.09;7.64;99517.25;4994685;28;20027;-75
2022/04/03 04:25:01;;;;;;;0.30;0.30;;;;;;;23.06;7.80;99512.41;4994672;28;20035;-75
2022/04/03 04:27:27;;;;;;;0.30;0.30;;;;;;;23.07;7.56;99514.03;4994536;28;20055;-75
2022/04/03 04:29:53;;;;;;;0.30;0.30;;;;;;;23.09;7.67;99519.97;4994623;28;20138;-75
2022/04/03 04:32:21;;;;;;;0.32;0.20;;;;;;;23.10;7.69;99510.72;4994596;28;20026;-75
2022/04/03 04:34:48;;;;;;;0.30;0.30;;;;;;;23.07;7.62;99505.84;4994508;28;20120;-75
2022/04/03 04:37:14;;;;;;;0.30;0.30;;;;;;;23.08;7.51;99506.66;4994419;28;20092;-75
2022/04/03 04:39:39;;;;;;;0.82;0.65;;;;;;;23.09;7.72;99508.28;4994000;28;20434;-75
2022/04/03 04:42:05;;;;;;;0.35;0.35;;;;;;;23.09;7.59;99508.28;4994567;28;20026;-75
2022/04/03 04:44:30;;;;;;;0.35;0.30;;;;;;;23.10;7.75;99504.47;4993495;28;20038;-75
2022/04/03 04:46:56;;;;;;;0.32;0.32;;;;;;;23.06;7.70;99507.78;4994735;28;20326;-75
2022/04/03 04:49:21;;;;;;;0.30;0.30;;;;;;;23.09;7.67;99508.28;4994307;28;20030;-76
2022/04/03 04:51:47;;;;;;;0.30;0.30;;;;;;;23.09;7.76;99502.84;4993859;28;20092;-76
2022/04/03 04:54:12;;;;;;;0.30;0.30;;;;;;;23.09;7.76;99500.91;4993903;28;20034;-76
2022/04/03 04:56:38;;;;;;;0.30;0.30;;;;;;;23.09;7.67;99491.94;4994018;28;20030;-76
2022/04/03 04:59:03;;;;;;;0.40;0.40;;;;;;;23.08;8.02;99495.75;5013533;28;20038;-76
2022/04/03 05:01:28;;;;;;;0.30;0.30;;;;;;;23.11;7.76;99498.72;5013409;28;20022;-76
2022/04/03 05:03:54;;;;;;;0.20;0.20;;;;;;;23.09;7.82;99491.94;5012264;28;20041;-75
2022/04/03 05:06:22;;;;;;;0.32;0.30;;;;;;;23.13;7.80;99501.97;5013654;28;20037;-76
2022/04/03 05:08:48;;;;;;;0.30;0.30;;;;;;;23.14;7.83;99495.38;5013655;28;20049;-76
2022/04/03 05:11:13;;;;;;;0.20;0.20;;;;;;;23.15;7.86;99497.03;5013665;28;20049;-76
2022/04/03 05:13:39;;;;;;;0.40;0.40;;;;;;;23.15;7.95;99496.22;5013314;28;20030;-76
2022/04/03 05:16:04;;;;;;;0.20;0.20;;;;;;;23.16;7.95;99492.38;5012062;28;20026;-75
2022/04/03 05:18:30;;;;;;;0.30;0.30;;;;;;;23.13;8.01;99496.50;5012140;28;20038;-75
2022/04/03 05:20:55;;;;;;;0.20;0.20;;;;;;;23.16;8.21;99492.38;5013143;28;20545;-75
2022/04/03 05:23:20;;;;;;;0.30;0.30;;;;;;;23.17;8.17;99494.00;5013562;28;20033;-75
2022/04/03 05:25:46;;;;;;;0.38;0.38;;;;;;;23.19;8.00;99491.78;5013475;28;20454;-75
2022/04/03 05:28:11;;;;;;;0.30;0.30;;;;;;;23.18;8.20;99487.44;5012986;28;20045;-76
2022/04/03 05:30:37;;;;;;;0.20;0.20;;;;;;;23.18;8.12;99485.53;5013198;28;20081;-76
2022/04/03 05:33:02;;;;;;;0.20;0.20;;;;;;;23.20;8.01;99487.97;5013113;28;20018;-75
2022/04/03 05:35:28;;;;;;;0.52;0.30;;;;;;;23.19;8.35;99486.34;5013124;28;20073;-76
2022/04/03 05:37:54;;;;;;;0.32;0.32;;;;;;;23.18;8.33;99485.53;5012192;28;20033;-76
2022/04/03 05:40:20;;;;;;;0.38;0.38;;;;;;;23.20;8.54;99487.97;5012171;28;20034;-76
2022/04/03 05:42:45;;;;;;;0.30;0.30;;;;;;;23.20;8.55;99485.25;5013331;28;20049;-76
2022/04/03 05:45:11;;;;;;;0.30;0.30;;;;;;;23.20;8.47;99487.97;5013281;28;20052;-75
2022/04/03 05:47:37;;;;;;;1.27;0.30;;;;;;;23.21;8.61;99484.94;5013048;28;20456;-75
2022/04/03 05:50:03;;;;;;;0.20;0.20;;;;;;;23.20;8.79;99482.53;5012981;28;20030;-75
2022/04/03 05:52:41;;;;;;;0.55;0.40;;;;;;;23.21;8.81;99484.13;5011744;28;20028;-76
2022/04/03 05:55:08;;;;;;;0.68;0.50;;;;;;;23.20;8.84;99482.53;5013201;28;20075;-76
2022/04/03 05:57:34;;;;;;;0.20;0.20;;;;;;;23.23;8.99;99481.91;5005822;28;20057;-76
2022/04/03 05:59:59;;;;;;;0.38;0.38;;;;;;;23.22;9.10;99480.31;4993228;28;20466;-76
2022/04/03 06:02:26;;;;;;;0.40;0.40;;;;;;;23.24;8.98;99484.34;4976135;28;20037;-75
2022/04/03 06:04:52;;;;;;;0.30;0.30;;;;;;;23.25;9.19;99479.72;4997266;28;20033;-76
2022/04/03 06:07:17;;;;;;;0.30;0.30;;;;;;;23.23;9.24;99477.28;4997047;28;20105;-76
2022/04/03 06:09:43;;;;;;;0.45;0.22;;;;;;;23.25;9.39;99479.72;4997135;28;20026;-75
2022/04/03 06:12:09;;;;;;;0.25;0.25;;;;;;;23.26;9.63;99481.34;4996712;28;20373;-75
2022/04/03 06:14:34;;;;;;;0.30;0.25;;;;;;;23.26;9.62;99475.88;4997712;28;20089;-75
2022/04/03 06:16:59;;;;;;;0.47;0.40;;;;;;;23.28;9.59;99473.66;4997018;28;20498;-75
2022/04/03 06:19:25;;;;;;;0.30;0.30;;;;;;;23.28;9.79;99473.66;4996828;28;20470;-76
2022/04/03 06:21:50;;;;;;;0.40;0.30;;;;;;;23.25;9.92;99458.72;4996645;28;20474;-75
2022/04/03 06:24:16;;;;;;;0.25;0.25;;;;;;;23.28;9.78;99454.59;4996920;28;20366;-76
2022/04/03 06:26:41;;;;;;;0.20;0.20;;;;;;;23.30;9.96;99473.38;4995644;28;20413;-75
2022/04/03 06:29:08;;;;;;;0.30;0.30;;;;;;;23.28;10.10;99456.50;4996517;28;20042;-75
2022/04/03 06:31:34;;;;;;;0.20;0.20;;;;;;;23.29;10.25;99453.50;4996356;28;20022;-75
2022/04/03 06:33:59;;;;;;;0.30;0.30;;;;;;;23.27;10.41;99458.44;4996388;28;20022;-76
2022/04/03 06:36:25;;;;;;;0.70;0.20;;;;;;;23.28;10.04;99451.84;4995091;28;20089;-75
2022/04/03 06:38:50;;;;;;;0.20;0.20;;;;;;;23.28;10.57;99451.84;4996690;28;20026;-75
2022/04/03 06:41:17;;;;;;;0.28;0.28;;;;;;;23.29;10.43;99453.50;4996501;28;20496;-76
2022/04/03 06:43:43;;;;;;;0.25;0.25;;;;;;;23.32;10.45;99457.53;4996229;28;20462;-75
2022/04/03 06:46:08;;;;;;;0.20;0.20;;;;;;;23.32;10.47;99450.19;4996099;28;20117;-75
2022/04/03 06:48:34;;;;;;;0.28;0.28;;;;;;;23.33;10.55;99454.50;4996095;28;20030;-75
2022/04/03 06:51:00;;;;;;;0.20;0.20;;;;;;;23.32;10.69;99458.34;4996141;28;20076;-75
2022/04/03 06:53:26;;;;;;;0.22;0.22;;;;;;;23.32;10.67;99452.91;4995123;28;20042;-75
2022/04/03 06:55:51;;;;;;;0.28;0.28;;;;;;;23.38;10.48;99450.91;4996328;28;20548;-75
2022/04/03 06:58:17;;;;;;;0.22;0.20;;;;;;;23.34;10.63;99450.69;5008095;28;20469;-75
2022/04/03 07:00:42;;;;;;;0.25;0.25;;;;;;;23.34;10.61;99453.41;5015805;28;20038;-76
2022/04/03 07:03:08;;;;;;;0.20;0.20;;;;;;;23.32;10.78;99443.91;5015497;28;20021;-75
2022/04/03 07:05:33;;;;;;;0.30;0.30;;;;;;;23.37;10.69;99441.94;5015357;28;20054;-75
2022/04/03 07:07:59;;;;;;;0.20;0.20;;;;;;;23.40;10.68;99452.25;5016421;28;20050;-75
2022/04/03 07:10:25;;;;;;;0.20;0.20;;;;;;;23.43;10.76;99443.44;5015689;28;20488;-76
2022/04/03 07:12:50;;;;;;;0.10;0.10;;;;;;;23.42;10.57;99441.84;5015328;28;20056;-76
2022/04/03 07:15:16;;;;;;;0.20;0.20;;;;;;;23.40;10.64;99440.50;5013050;28;20038;-76
2022/04/03 07:17:42;;;;;;;0.20;0.20;;;;;;;23.41;10.74;99434.75;5015184;28;20388;-75
2022/04/03 07:20:08;;;;;;;0.15;0.15;;;;;;;23.47;10.47;99442.88;5015146;28;20038;-76
2022/04/03 07:22:34;;;;;;;0.20;0.20;;;;;;;23.48;10.73;99439.03;5030620;28;20034;-75
2022/04/03 07:25:00;;;;;;;0.35;0.30;;;;;;;23.46;10.63;99424.88;5014031;28;20038;-75
2022/04/03 07:27:27;;;;;;;0.32;0.20;;;;;;;23.51;10.61;99430.25;5015311;28;20033;-76
2022/04/03 07:29:52;;;;;;;0.30;0.30;;;;;;;23.53;10.38;99425.34;5015033;28;20029;-75
2022/04/03 07:32:18;;;;;;;0.35;0.35;;;;;;;23.54;10.59;99437.84;5015227;28;20033;-76
2022/04/03 07:34:43;;;;;;;0.10;0.10;;;;;;;23.54;10.59;99418.75;5015274;28;20056;-76
2022/04/03 07:37:09;;;;;;;0.20;0.20;;;;;;;23.52;10.28;99415.53;5015225;28;20034;-75
2022/04/03 07:39:34;;;;;;;0.20;0.20;;;;;;;23.55;10.61;99420.38;5014891;28;20144;-75
2022/04/03 07:41:59;;;;;;;0.10;0.10;;;;;;;23.54;10.42;99421.47;5015084;28;20025;-76
2022/04/03 07:44:25;;;;;;;0.20;0.20;;;;;;;23.56;10.27;99420.09;5014910;28;20433;-75
2022/04/03 07:46:50;;;;;;;0.20;0.20;;;;;;;23.52;10.36;99416.31;5014836;28;20022;-75
2022/04/03 07:49:16;;;;;;;0.20;0.20;;;;;;;23.56;10.27;99422.00;5014977;28;20457;-75
2022/04/03 07:51:42;;;;;;;0.20;0.20;;;;;;;23.54;10.33;99405.13;5014567;28;20499;-75
2022/04/03 07:54:07;;;;;;;0.20;0.20;;;;;;;23.63;10.23;99415.06;5014878;28;20030;-75
2022/04/03 07:56:33;;;;;;;0.20;0.20;;;;;;;23.60;10.11;99412.13;5014533;28;20026;-75
2022/04/03 07:58:58;;;;;;;0.30;0.30;;;;;;;23.62;10.05;99418.88;4997775;28;20026;-75
2022/04/03 08:01:24;;;;;;;0.17;0.17;;;;;;;23.65;10.14;99412.03;4995233;28;20029;-75
2022/04/03 08:03:49;;;;;;;0.20;0.20;;;;;;;23.65;10.17;99412.03;4993878;28;20462;-75
2022/04/03 08:06:15;;;;;;;0.30;0.30;;;;;;;23.65;10.16;99408.50;4994680;28;20304;-75
2022/04/03 08:08:41;;;;;;;0.13;0.13;;;;;;;23.65;9.87;99411.22;4994725;28;20037;-75
2022/04/03 08:11:07;;;;;;;0.20;0.20;;;;;;;23.64;9.64;99410.41;4994777;28;20038;-76
2022/04/03 08:13:33;;;;;;;0.15;0.15;;;;;;;23.67;9.81;99409.81;4995025;28;20022;-75
2022/04/03 08:15:58;;;;;;;0.10;0.10;;;;;;;23.68;9.84;99416.91;4994904;28;20551;-75
2022/04/03 08:18:25;;;;;;;0.15;0.15;;;;;;;23.70;9.73;99402.94;4994799;28;20037;-76
2022/04/03 08:20:51;;;;;;;0.10;0.10;;;;;;;23.70;9.66;99402.94;4994531;28;20222;-76
2022/04/03 08:23:16;;;;;;;0.20;0.20;;;;;;;23.72;9.53;99401.53;4994582;28;20022;-76
2022/04/03 08:25:44;;;;;;;0.20;0.20;;;;;;;23.71;9.70;99401.84;4994292;28;20433;-76
2022/04/03 08:28:10;;;;;;;0.13;0.13;;;;;;;23.72;9.63;99393.38;4994640;28;20030;-76
2022/04/03 08:30:36;;;;;;;0.15;0.15;;;;;;;23.73;9.38;99403.19;4993309;28;20347;-76
2022/04/03 08:33:04;;;;;;;0.20;0.20;;;;;;;23.74;9.41;99393.06;4994149;28;20030;-75
2022/04/03 08:35:31;;;;;;;0.20;0.20;;;;;;;23.74;9.38;99393.88;4994536;28;20034;-76
2022/04/03 08:37:57;;;;;;;0.10;0.10;;;;;;;23.77;9.39;99396.00;4994234;28;20022;-75
2022/04/03 08:40:23;;;;;;;0.15;0.15;;;;;;;23.69;9.22;99374.84;4994116;28;20073;-75
2022/04/03 08:42:50;;;;;;;0.10;0.10;;;;;;;23.76;9.24;99383.47;4993204;28;20018;-76
2022/04/03 08:45:16;;;;;;;0.40;0.25;;;;;;;23.80;9.43;99380.94;4993171;28;20057;-76
2022/04/03 08:47:49;;;;;;;0.10;0.10;;;;;;;23.81;9.27;99377.94;4993902;28;20023;-76
2022/04/03 08:50:15;;;;;;;0.20;0.20;;;;;;;23.81;9.00;99385.31;4993997;28;20018;-75
2022/04/03 08:52:45;;;;;;;0.20;0.20;;;;;;;23.83;9.30;99379.56;4994038;28;20028;-76
2022/04/03 08:55:11;;;;;;;0.20;0.20;;;;;;;23.85;9.10;99388.25;4993962;28;20500;-75
2022/04/03 08:57:36;;;;;;;0.20;0.10;;;;;;;23.80;9.11;99387.22;4999151;28;20058;-75
2022/04/03 09:00:03;;;;;;;0.20;0.20;;;;;;;23.87;9.05;99386.03;5013582;28;20038;-75
2022/04/03 09:02:29;;;;;;;0.20;0.20;;;;;;;23.87;8.99;99383.31;5013404;28;20029;-75
2022/04/03 09:04:54;;;;;;;0.20;0.20;;;;;;;23.89;8.91;99389.28;5013669;28;20098;-76
2022/04/03 09:07:20;;;;;;;0.20;0.20;;;;;;;23.90;8.85;99377.25;5013535;28;20373;-76
2022/04/03 09:09:47;;;;;;;0.15;0.15;;;;;;;23.87;8.82;99375.94;5013676;28;20476;-75
2022/04/03 09:12:16;;;;;;;0.20;0.20;;;;;;;23.92;9.09;99372.31;5013357;28;20021;-75
2022/04/03 09:14:54;;;;;;;0.10;0.10;;;;;;;23.95;8.98;99368.97;5013614;28;20029;-75
2022/04/03 09:17:40;;;;;;;0.22;0.22;;;;;;;23.92;9.00;99372.31;5013350;28;20036;-76
2022/04/03 09:20:07;;;;;;;0.10;0.10;;;;;;;23.93;8.90;99360.28;5013224;28;20050;-76
2022/04/03 09:22:36;;;;;;;0.10;0.10;;;;;;;23.94;8.63;99364.63;5013423;28;20032;-76
2022/04/03 09:25:06;;;;;;;0.25;0.10;;;;;;;23.95;8.59;99368.97;5013266;28;20022;-76
2022/04/03 09:27:55;;;;;;;0.10;0.10;;;;;;;23.91;8.58;99354.31;5013105;28;20040;-76
2022/04/03 09:30:22;;;;;;;0.10;0.10;;;;;;;23.98;8.50;99360.19;5012857;28;20034;-76
2022/04/03 09:32:57;;;;;;;0.10;0.10;;;;;;;23.98;8.37;99363.72;5013474;28;20049;-76
2022/04/03 09:35:25;;;;;;;0.30;0.20;;;;;;;23.99;8.85;99367.25;5013192;28;20108;-76
2022/04/03 09:38:14;;;;;;;0.10;0.10;;;;;;;24.02;8.71;99360.41;5014261;28;20084;-76
2022/04/03 09:40:44;;;;;;;0.20;0.20;;;;;;;24.02;8.61;99361.19;5016987;28;20033;-76
2022/04/03 09:43:25;;;;;;;0.20;0.20;;;;;;;24.03;8.69;99346.44;5017366;28;20030;-75
2022/04/03 09:46:00;;;;;;;0.20;0.20;;;;;;;24.03;8.50;99354.63;5017024;28;20144;-76
2022/04/03 09:48:31;;;;;;;0.20;0.20;;;;;;;24.03;8.36;99351.09;5017164;28;20057;-76
2022/04/03 09:51:02;;;;;;;0.10;0.10;;;;;;;24.05;8.38;99348.88;5017179;28;20072;-76
2022/04/03 09:53:28;;;;;;;0.10;0.10;;;;;;;24.04;8.65;99348.06;5016896;28;20029;-76
2022/04/03 09:55:54;;;;;;;0.20;0.20;;;;;;;24.00;8.33;99336.13;5016818;28;20033;-76
2022/04/03 09:58:19;;;;;;;0.17;0.17;;;;;;;24.06;8.24;99348.59;5022226;28;20030;-75
2022/04/03 10:00:45;;;;;;;0.10;0.10;;;;;;;24.08;8.46;99342.81;4997028;28;20381;-76
2022/04/03 10:03:11;;;;;;;0.20;0.20;;;;;;;24.05;8.13;99344.22;4996967;28;20042;-75
2022/04/03 10:05:37;;;;;;;0.10;0.10;;;;;;;24.07;8.37;99330.28;4997024;28;20026;-76
2022/04/03 10:08:04;;;;;;;0.28;0.28;;;;;;;24.06;8.36;99328.66;4997272;28;20030;-75
2022/04/03 10:10:30;;;;;;;0.13;0.10;;;;;;;24.08;8.26;99331.91;4996898;28;20070;-75
2022/04/03 10:12:55;;;;;;;0.13;0.13;;;;;;;24.08;8.18;99329.97;4997218;28;20027;-75
2022/04/03 10:15:22;;;;;;;0.45;0.15;;;;;;;24.10;7.98;99324.22;4996749;28;20030;-76
2022/04/03 10:17:47;;;;;;;0.10;0.10;;;;;;;24.10;8.18;99329.69;4996732;28;20096;-76
2022/04/03 10:20:14;;;;;;;0.10;0.10;;;;;;;24.08;7.95;99331.91;4996465;28;20046;-75
2022/04/03 10:22:40;;;;;;;0.20;0.20;;;;;;;24.08;8.19;99319.06;4996597;28;20130;-76
2022/04/03 10:25:08;;;;;;;0.40;0.20;;;;;;;24.11;7.99;99326.66;4996961;28;20446;-76
2022/04/03 10:27:34;;;;;;;0.10;0.10;;;;;;;24.06;7.78;99301.34;4995383;28;20041;-75
2022/04/03 10:30:00;;;;;;;0.10;0.10;;;;;;;24.04;8.02;99315.31;4979606;28;20045;-76
2022/04/03 10:32:30;;;;;;;0.20;0.20;;;;;;;24.09;7.86;99309.75;4996522;28;20405;-76
2022/04/03 10:35:03;;;;;;;0.10;0.10;;;;;;;24.11;7.75;99314.91;4996462;28;20033;-76
2022/04/03 10:37:37;;;;;;;0.20;0.20;;;;;;;24.14;7.86;99317.03;4996743;28;20022;-76
2022/04/03 10:40:18;;;;;;;0.20;0.20;;;;;;;24.16;7.76;99307.44;4996645;28;20101;-76
2022/04/03 10:42:49;;;;;;;0.20;0.20;;;;;;;24.12;7.63;99311.88;4996626;28;20101;-76
2022/04/03 10:45:16;;;;;;;0.20;0.20;;;;;;;24.13;7.72;99309.97;4996337;28;20062;-76
2022/04/03 10:47:42;;;;;;;0.20;0.10;;;;;;;24.10;7.53;99302.38;4996393;28;20056;-76
2022/04/03 10:50:11;;;;;;;0.15;0.15;;;;;;;24.13;7.43;99310.78;4995021;28;20521;-76
2022/04/03 10:52:36;;;;;;;0.10;0.10;;;;;;;24.11;7.54;99310.28;4996352;28;20121;-76
2022/04/03 10:55:30;;;;;;;0.20;0.20;;;;;;;24.11;7.60;99309.44;4996427;28;20493;-76
2022/04/03 10:58:03;;;;;;;0.10;0.10;;;;;;;24.16;7.38;99295.69;5001249;28;20038;-76
2022/04/03 11:00:33;;;;;;;0.13;0.13;;;;;;;24.16;7.24;99293.78;5015945;28;20041;-76
2022/04/03 11:02:58;;;;;;;0.20;0.20;;;;;;;24.15;7.34;99288.63;5016511;28;20263;-76
2022/04/03 11:05:26;;;;;;;0.10;0.10;;;;;;;24.15;7.31;99289.44;5015408;28;20025;-75
2022/04/03 11:08:00;;;;;;;0.13;0.13;;;;;;;24.12;7.12;99289.22;5015349;28;20453;-75
2022/04/03 11:10:54;;;;;;;0.10;0.10;;;;;;;24.16;7.32;99291.06;5015362;28;20057;-76
2022/04/03 11:13:34;;;;;;;0.10;0.10;;;;;;;24.15;7.21;99286.69;5015761;28;20025;-76
2022/04/03 11:16:01;;;;;;;0.32;0.20;;;;;;;24.10;7.28;99280.56;5015679;28;20030;-76
2022/04/03 11:18:33;;;;;;;0.10;0.10;;;;;;;24.13;7.37;99286.22;5014586;28;20048;-75
2022/04/03 11:21:11;;;;;;;0.10;0.10;;;;;;;24.15;7.00;99277.72;5015148;28;20034;-76
2022/04/03 11:23:52;;;;;;;0.10;0.10;;;;;;;24.09;6.87;99274.25;5014345;28;20045;-76
2022/04/03 11:26:18;;;;;;;0.10;0.10;;;;;;;24.09;6.98;99268.81;5015090;28;20022;-76
2022/04/03 11:28:44;;;;;;;0.10;0.10;;;;;;;24.10;7.00;99262.25;5015169;28;20101;-76
2022/04/03 11:31:09;;;;;;;0.10;0.10;;;;;;;24.11;7.02;99261.16;5014607;28;20117;-75
2022/04/03 11:33:35;;;;;;;0.10;0.10;;;;;;;24.13;7.10;99261.63;5015094;28;20384;-75
2022/04/03 11:36:09;;;;;;;0.10;0.10;;;;;;;24.13;6.99;99261.63;5013719;28;20034;-75
2022/04/03 11:38:52;;;;;;;0.20;0.20;;;;;;;24.15;6.62;99259.41;5015170;28;20117;-75
2022/04/03 11:41:27;;;;;;;0.10;0.10;;;;;;;24.18;7.03;99250.63;5014027;28;20036;-76